sensor_id;sensor_type;location;lat;lon;timestamp;pressure;altitude;pressure_sealevel;temperature;humidity
26865;BME280;40618;51.166;10.322;2023-05-25T00:02:03;98161.81;;;9.35;67.20
26865;BME280;40618;51.166;10.322;2023-05-25T00:04:29;98166.06;;;9.36;68.07
26865;BME280;40618;51.166;10.322;2023-05-25T00:06:58;98166.97;;;9.35;67.35
26865;BME280;40618;51.166;10.322;2023-05-25T00:09:24;98166.97;;;9.35;67.57
26865;BME280;40618;51.166;10.322;2023-05-25T00:11:50;98160.97;;;9.31;67.12
26865;BME280;40618;51.166;10.322;2023-05-25T00:14:16;98167.91;;;9.28;67.42
26865;BME280;40618;51.166;10.322;2023-05-25T00:16:42;98168.78;;;9.28;67.31
26865;BME280;40618;51.166;10.322;2023-05-25T00:19:09;98165.31;;;9.31;67.45
26865;BME280;40618;51.166;10.322;2023-05-25T00:21:35;98163.50;;;9.35;67.46
26865;BME280;40618;51.166;10.322;2023-05-25T00:24:06;98164.34;;;9.38;67.77
26865;BME280;40618;51.166;10.322;2023-05-25T00:26:35;98160.94;;;9.35;67.37
26865;BME280;40618;51.166;10.322;2023-05-25T00:29:02;98160.13;;;9.32;67.44
26865;BME280;40618;51.166;10.322;2023-05-25T00:31:28;98161.84;;;9.30;67.36
26865;BME280;40618;51.166;10.322;2023-05-25T00:33:56;98161.97;;;9.23;67.31
26865;BME280;40618;51.166;10.322;2023-05-25T00:36:23;98170.63;;;9.20;67.34
26865;BME280;40618;51.166;10.322;2023-05-25T00:38:49;98168.97;;;9.14;67.65
26865;BME280;40618;51.166;10.322;2023-05-25T00:41:16;98167.22;;;9.17;67.40
26865;BME280;40618;51.166;10.322;2023-05-25T00:43:46;98167.22;;;9.17;67.86
26865;BME280;40618;51.166;10.322;2023-05-25T00:46:14;98167.19;;;9.18;67.74
26865;BME280;40618;51.166;10.322;2023-05-25T00:48:41;98168.91;;;9.18;67.82
26865;BME280;40618;51.166;10.322;2023-05-25T00:51:08;98173.22;;;9.17;66.99
26865;BME280;40618;51.166;10.322;2023-05-25T00:53:35;98171.56;;;9.14;67.76
26865;BME280;40618;51.166;10.322;2023-05-25T00:56:29;98155.22;;;9.11;67.32
26865;BME280;40618;51.166;10.322;2023-05-25T00:58:56;98158.69;;;9.10;67.43
26865;BME280;40618;51.166;10.322;2023-05-25T01:01:26;98169.06;;;9.07;67.58
26865;BME280;40618;51.166;10.322;2023-05-25T01:03:52;98170.84;;;9.02;67.62
26865;BME280;40618;51.166;10.322;2023-05-25T01:06:21;98163.94;;;9.01;66.99
26865;BME280;40618;51.166;10.322;2023-05-25T01:08:53;98176.09;;;8.95;67.59
26865;BME280;40618;51.166;10.322;2023-05-25T01:11:31;98176.25;;;8.83;67.10
26865;BME280;40618;51.166;10.322;2023-05-25T01:13:59;98173.72;;;8.75;67.15
26865;BME280;40618;51.166;10.322;2023-05-25T01:16:27;98166.00;;;8.75;67.55
26865;BME280;40618;51.166;10.322;2023-05-25T01:18:53;98169.38;;;8.77;67.50
26865;BME280;40618;51.166;10.322;2023-05-25T01:24:23;98160.09;;;8.64;67.87
26865;BME280;40618;51.166;10.322;2023-05-25T01:27:11;98159.22;;;8.67;67.09
26865;BME280;40618;51.166;10.322;2023-05-25T01:29:48;98153.13;;;8.69;67.53
26865;BME280;40618;51.166;10.322;2023-05-25T01:32:16;98160.06;;;8.67;67.58
26865;BME280;40618;51.166;10.322;2023-05-25T01:34:45;98160.94;;;8.64;66.89
26865;BME280;40618;51.166;10.322;2023-05-25T01:37:12;98158.41;;;8.61;67.24
26865;BME280;40618;51.166;10.322;2023-05-25T01:39:39;98162.72;;;8.58;67.66
26865;BME280;40618;51.166;10.322;2023-05-25T01:42:05;98164.47;;;8.54;67.00
26865;BME280;40618;51.166;10.322;2023-05-25T01:44:31;98162.81;;;8.52;66.94
26865;BME280;40618;51.166;10.322;2023-05-25T01:47:02;98161.97;;;8.50;67.37
26865;BME280;40618;51.166;10.322;2023-05-25T01:49:59;98162.84;;;8.47;67.12
26865;BME280;40618;51.166;10.322;2023-05-25T01:52:35;98165.47;;;8.41;66.74
26865;BME280;40618;51.166;10.322;2023-05-25T01:55:11;98162.91;;;8.39;67.39
26865;BME280;40618;51.166;10.322;2023-05-25T01:57:43;98157.72;;;8.41;67.14
26865;BME280;40618;51.166;10.322;2023-05-25T02:00:14;98165.50;;;8.39;66.98
26865;BME280;40618;51.166;10.322;2023-05-25T02:02:43;98170.66;;;8.35;66.93
26865;BME280;40618;51.166;10.322;2023-05-25T02:05:10;98160.44;;;8.27;67.69
26865;BME280;40618;51.166;10.322;2023-05-25T02:07:36;98162.19;;;8.23;66.93
26865;BME280;40618;51.166;10.322;2023-05-25T02:10:02;98163.06;;;8.21;67.33
26865;BME280;40618;51.166;10.322;2023-05-25T02:12:28;98157.06;;;8.17;67.59
26865;BME280;40618;51.166;10.322;2023-05-25T02:14:54;98166.53;;;8.18;67.15
26865;BME280;40618;51.166;10.322;2023-05-25T02:17:20;98168.28;;;8.16;67.23
26865;BME280;40618;51.166;10.322;2023-05-25T02:19:45;98164.81;;;8.17;67.08
26865;BME280;40618;51.166;10.322;2023-05-25T02:22:13;98154.50;;;8.16;67.63
26865;BME280;40618;51.166;10.322;2023-05-25T02:24:39;98150.22;;;8.14;67.02
26865;BME280;40618;51.166;10.322;2023-05-25T02:27:05;98139.97;;;8.07;67.33
26865;BME280;40618;51.166;10.322;2023-05-25T02:29:31;98148.59;;;8.06;66.89
26865;BME280;40618;51.166;10.322;2023-05-25T02:31:57;98146.06;;;7.98;67.65
26865;BME280;40618;51.166;10.322;2023-05-25T02:34:23;98140.91;;;7.98;67.65
26865;BME280;40618;51.166;10.322;2023-05-25T02:36:49;98147.78;;;7.99;67.59
26865;BME280;40618;51.166;10.322;2023-05-25T02:39:15;98147.78;;;7.97;67.81
26865;BME280;40618;51.166;10.322;2023-05-25T02:41:40;98139.22;;;7.95;67.24
26865;BME280;40618;51.166;10.322;2023-05-25T02:44:06;98145.31;;;7.87;67.51
26865;BME280;40618;51.166;10.322;2023-05-25T02:46:32;98134.19;;;7.80;67.37
26865;BME280;40618;51.166;10.322;2023-05-25T02:48:58;98134.19;;;7.78;67.10
26865;BME280;40618;51.166;10.322;2023-05-25T02:51:25;98135.88;;;7.83;67.20
26865;BME280;40618;51.166;10.322;2023-05-25T02:53:51;98132.44;;;7.84;67.00
26865;BME280;40618;51.166;10.322;2023-05-25T02:56:17;98145.34;;;7.84;67.38
26865;BME280;40618;51.166;10.322;2023-05-25T02:58:43;98148.81;;;7.79;67.15
26865;BME280;40618;51.166;10.322;2023-05-25T03:01:08;98150.59;;;7.71;66.93
26865;BME280;40618;51.166;10.322;2023-05-25T03:03:35;98154.97;;;7.61;67.29
26865;BME280;40618;51.166;10.322;2023-05-25T03:06:02;98152.38;;;7.58;67.30
26865;BME280;40618;51.166;10.322;2023-05-25T03:08:30;98161.81;;;7.61;67.33
26865;BME280;40618;51.166;10.322;2023-05-25T03:10:56;98164.38;;;7.62;67.89
26865;BME280;40618;51.166;10.322;2023-05-25T03:13:21;98162.69;;;7.61;67.57
26865;BME280;40618;51.166;10.322;2023-05-25T03:15:47;98166.16;;;7.54;68.01
26865;BME280;40618;51.166;10.322;2023-05-25T03:18:12;98167.94;;;7.43;67.76
26865;BME280;40618;51.166;10.322;2023-05-25T03:20:38;98168.84;;;7.36;67.51
26865;BME280;40618;51.166;10.322;2023-05-25T03:23:05;98172.28;;;7.36;67.70
26865;BME280;40618;51.166;10.322;2023-05-25T03:25:31;98170.56;;;7.40;67.92
26865;BME280;40618;51.166;10.322;2023-05-25T03:27:56;98178.28;;;7.38;67.44
26865;BME280;40618;51.166;10.322;2023-05-25T03:30:22;98181.78;;;7.28;67.41
26865;BME280;40618;51.166;10.322;2023-05-25T03:32:48;98182.66;;;7.22;67.81
26865;BME280;40618;51.166;10.322;2023-05-25T03:35:13;98189.56;;;7.22;67.82
26865;BME280;40618;51.166;10.322;2023-05-25T03:37:39;98189.50;;;7.26;67.79
26865;BME280;40618;51.166;10.322;2023-05-25T03:40:05;98182.66;;;7.24;67.72
26865;BME280;40618;51.166;10.322;2023-05-25T03:42:33;98181.81;;;7.22;68.05
26865;BME280;40618;51.166;10.322;2023-05-25T03:44:59;98186.97;;;7.22;68.19
26865;BME280;40618;51.166;10.322;2023-05-25T03:47:25;98196.38;;;7.24;67.74
26865;BME280;40618;51.166;10.322;2023-05-25T03:49:51;98196.41;;;7.26;68.67
26865;BME280;40618;51.166;10.322;2023-05-25T03:52:16;98199.78;;;7.29;67.90
26865;BME280;40618;51.166;10.322;2023-05-25T03:54:42;98192.91;;;7.33;67.86
26865;BME280;40618;51.166;10.322;2023-05-25T03:57:07;98193.78;;;7.24;67.94
26865;BME280;40618;51.166;10.322;2023-05-25T03:59:33;98195.56;;;7.18;67.86
26865;BME280;40618;51.166;10.322;2023-05-25T04:01:58;98194.72;;;7.14;68.33
26865;BME280;40618;51.166;10.322;2023-05-25T04:04:24;98182.69;;;7.19;68.20
26865;BME280;40618;51.166;10.322;2023-05-25T04:06:49;98193.78;;;7.24;68.55
26865;BME280;40618;51.166;10.322;2023-05-25T04:09:16;98198.94;;;7.24;68.17
26865;BME280;40618;51.166;10.322;2023-05-25T04:11:42;98209.31;;;7.18;68.51
26865;BME280;40618;51.166;10.322;2023-05-25T04:14:09;98208.44;;;7.16;68.65
26865;BME280;40618;51.166;10.322;2023-05-25T04:16:34;98205.84;;;7.21;68.18
26865;BME280;40618;51.166;10.322;2023-05-25T04:19:00;98207.56;;;7.23;68.88
26865;BME280;40618;51.166;10.322;2023-05-25T04:21:26;98211.91;;;7.15;68.87
26865;BME280;40618;51.166;10.322;2023-05-25T04:23:51;98211.03;;;7.11;68.80
26865;BME280;40618;51.166;10.322;2023-05-25T04:26:17;98215.31;;;7.16;68.46
26865;BME280;40618;51.166;10.322;2023-05-25T04:28:43;98229.03;;;7.16;68.43
26865;BME280;40618;51.166;10.322;2023-05-25T04:31:10;98226.47;;;7.16;68.26
26865;BME280;40618;51.166;10.322;2023-05-25T04:33:37;98223.06;;;7.13;68.73
26865;BME280;40618;51.166;10.322;2023-05-25T04:36:06;98224.78;;;7.07;68.88
26865;BME280;40618;51.166;10.322;2023-05-25T04:38:35;98219.66;;;7.04;68.27
26865;BME280;40618;51.166;10.322;2023-05-25T04:41:01;98224.81;;;7.03;69.14
26865;BME280;40618;51.166;10.322;2023-05-25T04:43:28;98227.38;;;7.04;68.80
26865;BME280;40618;51.166;10.322;2023-05-25T04:45:54;98225.63;;;7.14;69.42
26865;BME280;40618;51.166;10.322;2023-05-25T04:48:21;98236.75;;;7.21;69.12
26865;BME280;40618;51.166;10.322;2023-05-25T04:50:49;98241.06;;;7.19;68.77
26865;BME280;40618;51.166;10.322;2023-05-25T04:53:15;98238.50;;;7.17;69.24
26865;BME280;40618;51.166;10.322;2023-05-25T04:55:41;98243.63;;;7.19;69.29
26865;BME280;40618;51.166;10.322;2023-05-25T04:58:07;98252.22;;;7.21;69.76
26865;BME280;40618;51.166;10.322;2023-05-25T05:00:32;98246.19;;;7.26;69.75
26865;BME280;40618;51.166;10.322;2023-05-25T05:02:59;98245.28;;;7.32;69.32
26865;BME280;40618;51.166;10.322;2023-05-25T05:05:25;98248.72;;;7.39;69.45
26865;BME280;40618;51.166;10.322;2023-05-25T05:07:50;98254.69;;;7.44;69.79
26865;BME280;40618;51.166;10.322;2023-05-25T05:10:18;98258.09;;;7.48;70.13
26865;BME280;40618;51.166;10.322;2023-05-25T05:12:44;98252.06;;;7.58;70.08
26865;BME280;40618;51.166;10.322;2023-05-25T05:15:10;98252.84;;;7.68;69.90
26865;BME280;40618;51.166;10.322;2023-05-25T05:17:36;98251.94;;;7.75;69.90
26865;BME280;40618;51.166;10.322;2023-05-25T05:20:02;98253.63;;;7.79;69.77
26865;BME280;40618;51.166;10.322;2023-05-25T05:22:29;98251.97;;;7.76;70.40
26865;BME280;40618;51.166;10.322;2023-05-25T05:24:54;98258.81;;;7.81;69.65
26865;BME280;40618;51.166;10.322;2023-05-25T05:27:20;98258.72;;;7.90;69.98
26865;BME280;40618;51.166;10.322;2023-05-25T05:29:46;98256.13;;;7.94;70.25
26865;BME280;40618;51.166;10.322;2023-05-25T05:32:12;98255.28;;;7.97;70.42
26865;BME280;40618;51.166;10.322;2023-05-25T05:34:37;98246.63;;;7.98;69.46
26865;BME280;40618;51.166;10.322;2023-05-25T05:37:03;98258.72;;;7.94;69.91
26865;BME280;40618;51.166;10.322;2023-05-25T05:39:29;98264.72;;;7.93;69.77
26865;BME280;40618;51.166;10.322;2023-05-25T05:41:54;98265.56;;;7.99;70.35
26865;BME280;40618;51.166;10.322;2023-05-25T05:44:20;98269.84;;;8.03;70.33
26865;BME280;40618;51.166;10.322;2023-05-25T05:46:46;98274.06;;;8.11;70.73
26865;BME280;40618;51.166;10.322;2023-05-25T05:49:12;98281.72;;;8.22;70.52
26865;BME280;40618;51.166;10.322;2023-05-25T05:51:38;98276.53;;;8.30;71.00
26865;BME280;40618;51.166;10.322;2023-05-25T05:54:04;98277.31;;;8.38;70.99
26865;BME280;40618;51.166;10.322;2023-05-25T05:56:30;98270.41;;;8.43;69.98
26865;BME280;40618;51.166;10.322;2023-05-25T05:58:56;98273.81;;;8.52;70.75
26865;BME280;40618;51.166;10.322;2023-05-25T06:01:22;98275.44;;;8.60;70.83
26865;BME280;40618;51.166;10.322;2023-05-25T06:03:48;98271.91;;;8.69;70.79
26865;BME280;40618;51.166;10.322;2023-05-25T06:06:14;98278.75;;;8.76;71.08
26865;BME280;40618;51.166;10.322;2023-05-25T06:08:41;98279.50;;;8.86;70.55
26865;BME280;40618;51.166;10.322;2023-05-25T06:11:07;98277.69;;;8.94;70.76
26865;BME280;40618;51.166;10.322;2023-05-25T06:13:33;98267.28;;;9.02;70.73
26865;BME280;40618;51.166;10.322;2023-05-25T06:15:58;98279.25;;;9.11;71.66
26865;BME280;40618;51.166;10.322;2023-05-25T06:18:24;98279.19;;;9.15;71.16
26865;BME280;40618;51.166;10.322;2023-05-25T06:20:50;98277.41;;;9.21;70.54
26865;BME280;40618;51.166;10.322;2023-05-25T06:23:16;98280.72;;;9.30;71.45
26865;BME280;40618;51.166;10.322;2023-05-25T06:25:43;98282.38;;;9.36;71.33
26865;BME280;40618;51.166;10.322;2023-05-25T06:28:09;98283.16;;;9.44;71.24
26865;BME280;40618;51.166;10.322;2023-05-25T06:30:35;98294.25;;;9.53;70.98
26865;BME280;40618;51.166;10.322;2023-05-25T06:33:01;98296.72;;;9.65;71.18
26865;BME280;40618;51.166;10.322;2023-05-25T06:35:27;98297.44;;;9.75;71.33
26865;BME280;40618;51.166;10.322;2023-05-25T06:37:52;98288.69;;;9.83;71.30
26865;BME280;40618;51.166;10.322;2023-05-25T06:40:18;98297.16;;;9.93;71.15
26865;BME280;40618;51.166;10.322;2023-05-25T06:42:44;98292.72;;;10.05;71.46
26865;BME280;40618;51.166;10.322;2023-05-25T06:45:10;98295.97;;;10.18;71.05
26865;BME280;40618;51.166;10.322;2023-05-25T06:47:36;98294.97;;;10.26;70.76
26865;BME280;40618;51.166;10.322;2023-05-25T06:50:02;98286.28;;;10.32;70.80
26865;BME280;40618;51.166;10.322;2023-05-25T06:52:28;98293.06;;;10.41;70.92
26865;BME280;40618;51.166;10.322;2023-05-25T06:54:55;98288.63;;;10.49;71.29
26865;BME280;40618;51.166;10.322;2023-05-25T06:57:24;98293.69;;;10.54;70.85
26865;BME280;40618;51.166;10.322;2023-05-25T06:59:50;98294.44;;;10.62;70.90
26865;BME280;40618;51.166;10.322;2023-05-25T07:02:15;98290.03;;;10.67;70.92
26865;BME280;40618;51.166;10.322;2023-05-25T07:04:43;98286.50;;;10.71;70.39
26865;BME280;40618;51.166;10.322;2023-05-25T07:07:08;98282.94;;;10.77;70.69
26865;BME280;40618;51.166;10.322;2023-05-25T07:09:34;98281.03;;;10.90;70.52
26865;BME280;40618;51.166;10.322;2023-05-25T07:11:59;98283.34;;;11.04;70.82
26865;BME280;40618;51.166;10.322;2023-05-25T07:14:25;98281.38;;;11.16;70.67
26865;BME280;40618;51.166;10.322;2023-05-25T07:16:51;98277.81;;;11.22;70.44
26865;BME280;40618;51.166;10.322;2023-05-25T07:19:16;98276.13;;;11.21;70.25
26865;BME280;40618;51.166;10.322;2023-05-25T07:21:42;98284.69;;;11.23;70.50
26865;BME280;40618;51.166;10.322;2023-05-25T07:24:07;98282.09;;;11.23;69.59
26865;BME280;40618;51.166;10.322;2023-05-25T07:26:33;98281.25;;;11.23;69.78
26865;BME280;40618;51.166;10.322;2023-05-25T07:29:01;98280.41;;;11.21;70.05
26865;BME280;40618;51.166;10.322;2023-05-25T07:31:26;98282.13;;;11.22;70.22
26865;BME280;40618;51.166;10.322;2023-05-25T07:33:52;98281.19;;;11.26;69.56
26865;BME280;40618;51.166;10.322;2023-05-25T07:36:19;98282.84;;;11.30;70.23
26865;BME280;40618;51.166;10.322;2023-05-25T07:38:45;98290.63;;;11.30;69.51
26865;BME280;40618;51.166;10.322;2023-05-25T07:41:11;98290.69;;;11.27;69.56
26865;BME280;40618;51.166;10.322;2023-05-25T07:43:40;98297.63;;;11.26;69.95
26865;BME280;40618;51.166;10.322;2023-05-25T07:46:06;98289.75;;;11.31;69.72
26865;BME280;40618;51.166;10.322;2023-05-25T07:48:31;98287.97;;;11.34;69.62
26865;BME280;40618;51.166;10.322;2023-05-25T07:50:57;98299.13;;;11.37;69.36
26865;BME280;40618;51.166;10.322;2023-05-25T07:53:23;98306.00;;;11.39;69.41
26865;BME280;40618;51.166;10.322;2023-05-25T07:55:49;98292.13;;;11.42;69.34
26865;BME280;40618;51.166;10.322;2023-05-25T07:58:14;98301.59;;;11.44;69.15
26865;BME280;40618;51.166;10.322;2023-05-25T08:00:40;98307.66;;;11.43;69.37
26865;BME280;40618;51.166;10.322;2023-05-25T08:03:06;98305.06;;;11.43;69.57
26865;BME280;40618;51.166;10.322;2023-05-25T08:05:32;98309.28;;;11.47;69.08
26865;BME280;40618;51.166;10.322;2023-05-25T08:07:57;98309.22;;;11.50;69.30
26865;BME280;40618;51.166;10.322;2023-05-25T08:10:23;98314.41;;;11.50;69.34
26865;BME280;40618;51.166;10.322;2023-05-25T08:12:55;98311.78;;;11.52;69.37
26865;BME280;40618;51.166;10.322;2023-05-25T08:15:21;98310.06;;;11.52;69.05
26865;BME280;40618;51.166;10.322;2023-05-25T08:17:46;98314.38;;;11.52;68.81
26865;BME280;40618;51.166;10.322;2023-05-25T08:20:15;98309.88;;;11.60;69.29
26865;BME280;40618;51.166;10.322;2023-05-25T08:22:41;98314.59;;;11.83;69.25
26865;BME280;40618;51.166;10.322;2023-05-25T08:25:10;98306.53;;;11.99;69.43
26865;BME280;40618;51.166;10.322;2023-05-25T08:27:36;98316.34;;;12.24;69.52
26865;BME280;40618;51.166;10.322;2023-05-25T08:30:02;98306.16;;;12.52;69.35
26865;BME280;40618;51.166;10.322;2023-05-25T08:32:30;98308.09;;;12.80;69.21
26865;BME280;40618;51.166;10.322;2023-05-25T08:34:55;98311.28;;;12.90;68.79
26865;BME280;40618;51.166;10.322;2023-05-25T08:37:21;98306.78;;;12.96;68.87
26865;BME280;40618;51.166;10.322;2023-05-25T08:39:47;98309.41;;;12.96;67.89
26865;BME280;40618;51.166;10.322;2023-05-25T08:42:13;98310.38;;;12.92;67.65
26865;BME280;40618;51.166;10.322;2023-05-25T08:44:38;98311.94;;;12.98;67.59
26865;BME280;40618;51.166;10.322;2023-05-25T08:47:05;98317.94;;;13.01;67.31
26865;BME280;40618;51.166;10.322;2023-05-25T08:49:36;98316.88;;;13.09;67.33
26865;BME280;40618;51.166;10.322;2023-05-25T08:52:04;98321.19;;;13.10;67.19
26865;BME280;40618;51.166;10.322;2023-05-25T08:54:34;98316.13;;;13.03;66.74
26865;BME280;40618;51.166;10.322;2023-05-25T08:57:17;98317.19;;;12.96;67.00
26865;BME280;40618;51.166;10.322;2023-05-25T08:59:52;98319.50;;;13.07;67.22
26865;BME280;40618;51.166;10.322;2023-05-25T09:02:33;98320.53;;;13.34;67.40
26865;BME280;40618;51.166;10.322;2023-05-25T09:05:04;98317.16;;;13.62;66.73
26865;BME280;40618;51.166;10.322;2023-05-25T09:07:31;98317.50;;;13.81;66.37
26865;BME280;40618;51.166;10.322;2023-05-25T09:09:57;98312.06;;;13.89;66.33
26865;BME280;40618;51.166;10.322;2023-05-25T09:12:29;98311.44;;;14.11;65.92
26865;BME280;40618;51.166;10.322;2023-05-25T09:14:57;98310.09;;;14.26;65.61
26865;BME280;40618;51.166;10.322;2023-05-25T09:17:23;98317.19;;;14.20;65.35
26865;BME280;40618;51.166;10.322;2023-05-25T09:19:49;98327.00;;;14.12;65.16
26865;BME280;40618;51.166;10.322;2023-05-25T09:22:15;98320.25;;;14.05;64.63
26865;BME280;40618;51.166;10.322;2023-05-25T09:24:41;98329.16;;;13.98;64.94
26865;BME280;40618;51.166;10.322;2023-05-25T09:27:14;98322.78;;;14.08;65.28
26865;BME280;40618;51.166;10.322;2023-05-25T09:29:42;98328.13;;;14.32;65.14
26865;BME280;40618;51.166;10.322;2023-05-25T09:32:08;98315.22;;;14.55;65.03
26865;BME280;40618;51.166;10.322;2023-05-25T09:34:34;98333.38;;;14.59;64.86
26865;BME280;40618;51.166;10.322;2023-05-25T09:37:02;98332.59;;;14.55;64.55
26865;BME280;40618;51.166;10.322;2023-05-25T09:39:29;98331.91;;;14.50;64.57
26865;BME280;40618;51.166;10.322;2023-05-25T09:41:55;98336.84;;;14.31;64.68
26865;BME280;40618;51.166;10.322;2023-05-25T09:44:21;98333.63;;;14.22;64.47
26865;BME280;40618;51.166;10.322;2023-05-25T09:46:47;98325.81;;;14.22;64.82
26865;BME280;40618;51.166;10.322;2023-05-25T09:49:13;98327.06;;;14.37;64.87
26865;BME280;40618;51.166;10.322;2023-05-25T09:51:39;98328.88;;;14.64;64.65
26865;BME280;40618;51.166;10.322;2023-05-25T09:54:08;98325.97;;;14.73;64.83
26865;BME280;40618;51.166;10.322;2023-05-25T09:56:34;98328.75;;;14.94;64.76
26865;BME280;40618;51.166;10.322;2023-05-25T09:59:00;98336.56;;;15.20;64.42
26865;BME280;40618;51.166;10.322;2023-05-25T10:01:27;98336.25;;;15.53;64.55
26865;BME280;40618;51.166;10.322;2023-05-25T10:03:53;98337.28;;;15.73;63.77
26865;BME280;40618;51.166;10.322;2023-05-25T10:06:24;98336.84;;;15.62;63.43
26865;BME280;40618;51.166;10.322;2023-05-25T10:08:52;98340.41;;;15.59;63.35
26865;BME280;40618;51.166;10.322;2023-05-25T10:11:21;98331.69;;;15.60;63.38
26865;BME280;40618;51.166;10.322;2023-05-25T10:13:49;98343.06;;;15.57;63.04
26865;BME280;40618;51.166;10.322;2023-05-25T10:16:16;98337.28;;;15.49;63.12
26865;BME280;40618;51.166;10.322;2023-05-25T10:18:44;98341.03;;;15.42;62.87
26865;BME280;40618;51.166;10.322;2023-05-25T10:21:15;98339.50;;;15.35;62.51
26865;BME280;40618;51.166;10.322;2023-05-25T10:23:44;98342.41;;;15.27;62.59
26865;BME280;40618;51.166;10.322;2023-05-25T10:26:18;98341.06;;;15.15;62.10
26865;BME280;40618;51.166;10.322;2023-05-25T10:28:49;98335.53;;;14.99;61.81
26865;BME280;40618;51.166;10.322;2023-05-25T10:31:17;98334.97;;;14.89;62.55
26865;BME280;40618;51.166;10.322;2023-05-25T10:33:43;98334.56;;;15.02;62.56
26865;BME280;40618;51.166;10.322;2023-05-25T10:36:11;98336.44;;;15.23;62.81
26865;BME280;40618;51.166;10.322;2023-05-25T10:38:39;98327.28;;;15.61;62.28
26865;BME280;40618;51.166;10.322;2023-05-25T10:41:08;98325.38;;;15.91;62.11
26865;BME280;40618;51.166;10.322;2023-05-25T10:43:36;98329.94;;;16.08;61.85
26865;BME280;40618;51.166;10.322;2023-05-25T10:46:06;98323.00;;;16.29;61.49
26865;BME280;40618;51.166;10.322;2023-05-25T10:48:36;98322.78;;;16.35;60.97
26865;BME280;40618;51.166;10.322;2023-05-25T10:51:03;98327.66;;;16.22;61.05
26865;BME280;40618;51.166;10.322;2023-05-25T10:53:30;98328.09;;;16.10;60.86
26865;BME280;40618;51.166;10.322;2023-05-25T10:58:26;98319.50;;;15.84;61.08
26865;BME280;40618;51.166;10.322;2023-05-25T11:01:21;98327.59;;;15.77;60.80
26865;BME280;40618;51.166;10.322;2023-05-25T11:03:55;98322.66;;;15.69;60.57
26865;BME280;40618;51.166;10.322;2023-05-25T11:07:02;98316.47;;;15.71;61.19
26865;BME280;40618;51.166;10.322;2023-05-25T11:09:27;98320.63;;;16.01;60.85
26865;BME280;40618;51.166;10.322;2023-05-25T11:14:27;98317.13;;;16.46;60.82
26865;BME280;40618;51.166;10.322;2023-05-25T11:17:11;98315.31;;;16.69;60.23
26865;BME280;40618;51.166;10.322;2023-05-25T11:19:43;98320.63;;;16.88;59.86
26865;BME280;40618;51.166;10.322;2023-05-25T11:22:18;98316.44;;;16.84;59.50
26865;BME280;40618;51.166;10.322;2023-05-25T11:24:51;98315.28;;;16.70;59.78
26865;BME280;40618;51.166;10.322;2023-05-25T11:27:26;98313.81;;;16.63;59.35
26865;BME280;40618;51.166;10.322;2023-05-25T11:29:53;98308.09;;;16.53;59.37
26865;BME280;40618;51.166;10.322;2023-05-25T11:32:22;98312.84;;;16.44;59.59
26865;BME280;40618;51.166;10.322;2023-05-25T11:34:51;98305.50;;;16.53;59.50
26865;BME280;40618;51.166;10.322;2023-05-25T11:37:19;98298.72;;;16.70;59.94
26865;BME280;40618;51.166;10.322;2023-05-25T11:39:50;98311.56;;;16.76;59.27
26865;BME280;40618;51.166;10.322;2023-05-25T11:42:18;98309.00;;;16.74;59.35
26865;BME280;40618;51.166;10.322;2023-05-25T11:44:45;98308.41;;;16.68;58.98
26865;BME280;40618;51.166;10.322;2023-05-25T11:47:12;98310.66;;;16.55;58.86
26865;BME280;40618;51.166;10.322;2023-05-25T11:49:42;98298.44;;;16.55;59.45
26865;BME280;40618;51.166;10.322;2023-05-25T11:52:12;98300.56;;;16.68;59.75
26865;BME280;40618;51.166;10.322;2023-05-25T11:54:39;98298.75;;;16.90;59.33
26865;BME280;40618;51.166;10.322;2023-05-25T11:57:15;98298.44;;;16.98;58.64
26865;BME280;40618;51.166;10.322;2023-05-25T11:59:54;98305.28;;;16.80;58.69
26865;BME280;40618;51.166;10.322;2023-05-25T12:02:22;98301.44;;;16.89;59.05
26865;BME280;40618;51.166;10.322;2023-05-25T12:04:59;98302.84;;;17.18;58.83
26865;BME280;40618;51.166;10.322;2023-05-25T12:07:29;98298.19;;;17.44;58.58
26865;BME280;40618;51.166;10.322;2023-05-25T12:10:10;98295.66;;;17.62;57.87
26865;BME280;40618;51.166;10.322;2023-05-25T12:12:45;98309.34;;;17.68;58.22
26865;BME280;40618;51.166;10.322;2023-05-25T12:15:20;98302.34;;;17.50;57.68
26865;BME280;40618;51.166;10.322;2023-05-25T12:17:47;98298.22;;;17.23;57.69
26865;BME280;40618;51.166;10.322;2023-05-25T12:20:15;98289.09;;;17.13;57.56
26865;BME280;40618;51.166;10.322;2023-05-25T12:22:42;98287.91;;;17.00;57.48
26865;BME280;40618;51.166;10.322;2023-05-25T12:25:10;98290.28;;;17.06;57.58
26865;BME280;40618;51.166;10.322;2023-05-25T12:27:37;98294.56;;;17.28;57.85
26865;BME280;40618;51.166;10.322;2023-05-25T12:30:05;98294.09;;;17.38;57.49
26865;BME280;40618;51.166;10.322;2023-05-25T12:32:32;98297.75;;;17.34;57.68
26865;BME280;40618;51.166;10.322;2023-05-25T12:35:05;98295.28;;;17.31;57.42
26865;BME280;40618;51.166;10.322;2023-05-25T12:37:32;98294.22;;;17.35;57.60
26865;BME280;40618;51.166;10.322;2023-05-25T12:39:58;98292.59;;;17.33;57.77
26865;BME280;40618;51.166;10.322;2023-05-25T12:42:25;98291.13;;;17.46;57.69
26865;BME280;40618;51.166;10.322;2023-05-25T12:44:54;98294.91;;;17.59;57.59
26865;BME280;40618;51.166;10.322;2023-05-25T12:47:23;98286.69;;;17.67;57.54
26865;BME280;40618;51.166;10.322;2023-05-25T12:49:50;98280.13;;;17.77;57.38
26865;BME280;40618;51.166;10.322;2023-05-25T12:52:34;98276.88;;;17.91;56.81
26865;BME280;40618;51.166;10.322;2023-05-25T12:55:26;98282.97;;;17.73;56.68
26865;BME280;40618;51.166;10.322;2023-05-25T12:58:00;98285.66;;;17.32;56.61
26865;BME280;40618;51.166;10.322;2023-05-25T13:00:34;98286.06;;;17.22;56.94
26865;BME280;40618;51.166;10.322;2023-05-25T13:03:04;98283.78;;;17.15;56.87
26865;BME280;40618;51.166;10.322;2023-05-25T13:05:34;98283.66;;;17.18;57.31
26865;BME280;40618;51.166;10.322;2023-05-25T13:08:02;98288.03;;;17.17;56.69